createdAt,value
2019-01-23T00:02:45.509Z,54.03
2019-01-23T00:07:50.844Z,53.07
2019-01-23T00:12:56.159Z,57.80
2019-01-23T00:18:01.480Z,49.77
2019-01-23T00:23:06.815Z,53.33
2019-01-23T00:28:12.161Z,53.80
2019-01-23T00:33:17.480Z,52.67
2019-01-23T00:38:22.814Z,53.80
2019-01-23T00:43:28.175Z,57.83
2019-01-23T00:48:33.498Z,58.33
2019-01-23T00:53:38.840Z,59.07
2019-01-23T00:58:49.185Z,55.83
2019-01-23T01:03:51.250Z,56.53
2019-01-23T01:08:56.581Z,54.30
2019-01-23T01:14:01.899Z,64.30
2019-01-23T01:19:07.228Z,59.90
2019-01-23T01:24:12.570Z,53.60
2019-01-23T01:29:17.930Z,64.73
2019-01-23T01:34:23.275Z,57.23
2019-01-23T01:39:28.589Z,57.00
2019-01-23T01:44:33.959Z,61.43
2019-01-23T01:49:39.279Z,56.83
2019-01-23T01:54:44.608Z,57.27
2019-01-23T01:59:49.950Z,55.67
2019-01-23T02:04:55.283Z,56.37
2019-01-23T02:10:00.583Z,48.97
2019-01-23T02:15:07.240Z,61.03
2019-01-23T02:20:19.609Z,59.10
2019-01-23T02:25:25.100Z,53.17
2019-01-23T02:30:30.405Z,57.87
2019-01-23T02:35:35.689Z,54.17
2019-01-23T02:40:41.055Z,53.27
2019-01-23T02:45:46.376Z,55.93
2019-01-23T02:50:51.684Z,53.27
2019-01-23T02:55:57.003Z,52.27
2019-01-23T03:01:02.365Z,55.87
2019-01-23T03:06:07.658Z,56.10
2019-01-23T03:11:13.045Z,54.03
2019-01-23T03:16:18.351Z,49.90
2019-01-23T03:21:23.653Z,56.17
2019-01-23T03:26:28.943Z,50.17
2019-01-23T03:31:34.281Z,44.37
2019-01-23T03:36:39.620Z,51.57
2019-01-23T03:41:44.927Z,46.97
2019-01-23T03:46:50.243Z,50.23
2019-01-23T03:51:55.551Z,47.23
2019-01-23T03:57:00.855Z,47.87
2019-01-23T04:02:06.216Z,49.30
2019-01-23T04:07:11.544Z,52.80
2019-01-23T04:12:16.939Z,47.33
2019-01-23T04:17:22.262Z,47.00
2019-01-23T04:22:27.581Z,49.67
2019-01-23T04:27:32.914Z,46.30
2019-01-23T04:32:38.193Z,48.60
2019-01-23T04:37:43.564Z,45.30
2019-01-23T04:42:48.879Z,48.03
2019-01-23T04:47:54.207Z,49.73
2019-01-23T04:53:04.811Z,46.73
2019-01-23T04:58:10.159Z,42.60
2019-01-23T05:03:15.583Z,43.60
2019-01-23T05:08:20.900Z,46.27
2019-01-23T05:13:26.187Z,49.20
2019-01-23T05:18:31.491Z,43.83
2019-01-23T05:23:36.830Z,47.00
2019-01-23T05:28:42.107Z,48.67
2019-01-23T05:33:47.472Z,48.90
2019-01-23T05:38:52.799Z,51.10
2019-01-23T05:43:59.229Z,46.90
2019-01-23T05:49:04.595Z,51.33
2019-01-23T05:54:09.939Z,56.20
2019-01-23T05:59:15.251Z,50.23
2019-01-23T06:04:20.625Z,50.20
2019-01-23T06:09:25.956Z,53.70
2019-01-23T06:14:31.284Z,51.03
2019-01-23T06:19:36.640Z,57.97
2019-01-23T06:24:41.947Z,60.10
2019-01-23T06:29:47.267Z,56.33
2019-01-23T06:34:52.722Z,54.60
2019-01-23T06:39:58.062Z,55.60
2019-01-23T06:45:03.407Z,59.53
2019-01-23T06:50:12.694Z,56.00
2019-01-23T06:55:18.024Z,61.17
2019-01-23T07:00:25.760Z,56.57
2019-01-23T07:05:31.085Z,60.80
2019-01-23T07:10:36.756Z,55.10
2019-01-23T07:15:42.161Z,56.27
2019-01-23T07:20:47.536Z,61.17
2019-01-23T07:25:52.875Z,57.57
2019-01-23T07:30:58.211Z,54.23
2019-01-23T07:36:03.486Z,58.00
2019-01-23T07:41:08.799Z,50.13
2019-01-23T07:46:14.108Z,54.37
2019-01-23T07:51:19.414Z,57.40
2019-01-23T07:56:24.758Z,51.07
2019-01-23T08:01:30.086Z,57.37
2019-01-23T08:06:35.375Z,52.80
2019-01-23T08:11:40.681Z,50.67
2019-01-23T08:16:46.043Z,55.53
2019-01-23T08:21:51.358Z,50.00
2019-01-23T08:26:56.675Z,53.37
2019-01-23T08:32:01.995Z,55.97
2019-01-23T08:37:07.312Z,54.20
2019-01-23T08:42:12.626Z,48.23
2019-01-23T08:47:17.947Z,49.67
2019-01-23T08:52:23.254Z,50.40
2019-01-23T08:57:28.653Z,51.03
2019-01-23T09:02:34.042Z,53.53
2019-01-23T09:07:39.347Z,49.43
2019-01-23T09:12:44.686Z,47.60
2019-01-23T09:17:50.099Z,52.67
2019-01-23T09:22:55.394Z,51.63
2019-01-23T09:28:00.748Z,47.40
2019-01-23T09:33:51.123Z,48.30
2019-01-23T09:40:03.617Z,45.80
2019-01-23T09:45:55.613Z,45.00
2019-01-23T09:51:50.202Z,46.33
2019-01-23T09:56:55.501Z,45.30
2019-01-23T10:02:00.825Z,48.03
2019-01-23T10:07:06.226Z,41.87
2019-01-23T10:12:13.345Z,43.20
2019-01-23T10:17:18.743Z,41.90
2019-01-23T10:22:24.111Z,43.17
2019-01-23T10:27:29.435Z,46.53
2019-01-23T10:32:34.730Z,46.10
2019-01-23T10:37:40.044Z,45.57
2019-01-23T10:42:45.439Z,40.80
2019-01-23T10:47:55.997Z,42.87
2019-01-23T10:52:57.917Z,42.63
2019-01-23T10:58:03.193Z,47.50
2019-01-23T11:03:10.087Z,41.07
2019-01-23T11:08:15.645Z,39.87
2019-01-23T11:13:20.978Z,43.67
2019-01-23T11:18:26.292Z,43.00
2019-01-23T11:23:31.806Z,43.67
2019-01-23T11:28:37.133Z,39.93
2019-01-23T11:33:42.477Z,42.33
2019-01-23T11:38:47.795Z,42.97
2019-01-23T11:43:53.138Z,40.63
2019-01-23T11:48:58.611Z,42.50
2019-01-23T11:54:04.086Z,41.33
2019-01-23T11:59:09.514Z,43.13
2019-01-23T12:04:14.809Z,42.43
2019-01-23T12:09:20.119Z,46.43
2019-01-23T12:14:25.457Z,38.83
2019-01-23T12:19:32.842Z,40.47
2019-01-23T12:24:38.240Z,41.63
2019-01-23T12:29:43.541Z,38.87
2019-01-23T12:34:48.914Z,47.63
2019-01-23T12:39:54.289Z,43.13
2019-01-23T12:44:59.664Z,44.93
2019-01-23T12:50:05.759Z,42.47
2019-01-23T12:55:11.149Z,40.17
2019-01-23T13:00:20.888Z,40.60
2019-01-23T13:05:26.214Z,39.47
2019-01-23T13:10:31.599Z,41.47
2019-01-23T13:15:36.952Z,39.80
2019-01-23T13:20:42.313Z,42.30
2019-01-23T13:25:47.692Z,43.17
2019-01-23T13:30:53.037Z,42.80
2019-01-23T13:35:58.361Z,42.57
2019-01-23T13:41:03.699Z,44.13
2019-01-23T13:46:09.019Z,42.00
2019-01-23T13:51:14.333Z,43.63
2019-01-23T13:56:19.643Z,39.13
2019-01-23T14:01:25.092Z,42.20
2019-01-23T14:06:30.621Z,42.57
2019-01-23T14:11:35.933Z,42.40
2019-01-23T14:16:41.271Z,45.40
2019-01-23T14:21:46.589Z,38.60
2019-01-23T14:26:52.178Z,41.50
2019-01-23T14:32:03.355Z,37.30
2019-01-23T14:37:04.844Z,40.90
2019-01-23T14:42:10.168Z,38.73
2019-01-23T14:47:15.507Z,36.87
2019-01-23T14:52:20.875Z,38.00
2019-01-23T14:57:26.183Z,42.43
2019-01-23T15:02:32.038Z,40.73
2019-01-23T15:07:37.354Z,38.53
2019-01-23T15:12:42.678Z,38.57
2019-01-23T15:17:48.066Z,39.97
2019-01-23T15:22:53.471Z,35.27
2019-01-23T15:27:58.821Z,36.40
2019-01-23T15:33:04.154Z,40.50
2019-01-23T15:38:09.499Z,35.03
2019-01-23T15:43:14.802Z,36.87
2019-01-23T15:48:20.118Z,34.53
2019-01-23T15:53:25.567Z,37.10
2019-01-23T15:58:30.978Z,36.90
2019-01-23T16:03:36.293Z,36.97
2019-01-23T16:08:41.634Z,37.17
2019-01-23T16:13:47.036Z,37.93
2019-01-23T16:18:52.376Z,36.50
2019-01-23T16:23:58.229Z,32.70
2019-01-23T16:29:04.229Z,35.67
2019-01-23T16:34:09.843Z,32.87
2019-01-23T16:39:15.233Z,33.20
2019-01-23T16:44:21.176Z,33.93
2019-01-23T16:49:27.158Z,36.30
2019-01-23T16:54:32.730Z,34.37
2019-01-23T16:59:38.046Z,34.63
2019-01-23T17:04:43.377Z,33.97
2019-01-23T17:09:48.683Z,35.83
2019-01-23T17:14:54.003Z,36.60
2019-01-23T17:19:59.359Z,35.43
2019-01-23T17:25:04.962Z,33.27
2019-01-23T17:30:11.204Z,31.23
2019-01-23T17:35:16.871Z,35.50
2019-01-23T17:40:22.258Z,33.37
2019-01-23T17:45:31.127Z,34.23
2019-01-23T17:50:36.456Z,40.07
2019-01-23T17:55:42.455Z,35.17
2019-01-23T18:00:53.217Z,36.87
2019-01-23T18:05:58.657Z,38.53
2019-01-23T18:11:04.057Z,41.87
2019-01-23T18:16:12.132Z,36.03
2019-01-23T18:21:18.703Z,36.50
2019-01-23T18:26:37.585Z,34.13
2019-01-23T18:31:45.345Z,31.93
2019-01-23T18:37:08.974Z,34.33
2019-01-23T18:43:15.598Z,37.00
2019-01-23T18:49:51.178Z,40.43
2019-01-23T18:54:57.402Z,42.83
2019-01-23T19:00:03.484Z,45.13
2019-01-23T19:05:10.295Z,40.07
2019-01-23T19:10:16.021Z,36.70
2019-01-23T19:15:22.955Z,39.23
2019-01-23T19:20:29.905Z,39.33
2019-01-23T19:25:36.574Z,40.40
2019-01-23T19:30:43.215Z,40.43
2019-01-23T19:35:49.331Z,39.63
2019-01-23T19:40:54.885Z,39.90
2019-01-23T19:46:01.083Z,40.80
2019-01-23T19:51:06.650Z,41.60
2019-01-23T19:56:12.082Z,36.93
2019-01-23T20:01:19.536Z,38.97
2019-01-23T20:06:25.585Z,41.07
2019-01-23T20:11:32.190Z,39.10
2019-01-23T20:16:38.229Z,40.50
2019-01-23T20:21:44.164Z,37.77
2019-01-23T20:26:50.517Z,37.10
2019-01-23T20:31:57.066Z,41.37
2019-01-23T20:37:03.664Z,39.73
2019-01-23T20:42:10.537Z,35.93
2019-01-23T20:47:17.956Z,44.20
2019-01-23T20:52:25.863Z,37.97
2019-01-23T20:57:33.127Z,39.43
2019-01-23T21:02:40.501Z,36.87
2019-01-23T21:07:46.083Z,38.83
2019-01-23T21:12:54.100Z,38.23
2019-01-23T21:18:03.184Z,39.70
2019-01-23T21:23:11.048Z,38.40
2019-01-23T21:28:17.586Z,41.13
2019-01-23T21:33:24.070Z,41.63
2019-01-23T21:38:31.039Z,40.47
2019-01-23T21:43:37.593Z,42.53
2019-01-23T21:48:44.137Z,38.17
2019-01-23T21:53:50.454Z,37.00
2019-01-23T21:58:57.012Z,44.17
2019-01-23T22:04:04.275Z,45.57
2019-01-23T22:09:10.656Z,54.53
2019-01-23T22:14:16.029Z,49.63
2019-01-23T22:19:21.359Z,49.80
2019-01-23T22:24:26.715Z,55.33
2019-01-23T22:29:32.044Z,56.13
2019-01-23T22:34:37.372Z,54.87
2019-01-23T22:39:42.730Z,59.23
2019-01-23T22:44:48.057Z,52.50
2019-01-23T22:49:53.376Z,53.17
2019-01-23T22:54:58.709Z,52.17
2019-01-23T23:00:04.341Z,56.47
2019-01-23T23:05:11.019Z,53.63
2019-01-23T23:10:16.360Z,55.33
2019-01-23T23:15:21.692Z,57.50
2019-01-23T23:20:27.032Z,54.70
2019-01-23T23:25:32.340Z,58.20
2019-01-23T23:30:37.670Z,56.60
2019-01-23T23:35:42.976Z,59.40
2019-01-23T23:40:48.296Z,53.70
2019-01-23T23:45:53.607Z,56.50
2019-01-23T23:50:58.920Z,58.47
2019-01-23T23:56:04.293Z,53.67
